Weather at Lokok Airstrip

Public forecast

Using degrees Celsius for public forecast. Weather courtesy of forecast.io.

Closest aviation weather report (METAR) to Lokok Airstrip

Closest report is Kuching International Airport, 33.3 nm (61.8 km) NNE.

2024/05/28 18:00 (retrieved 16 minutes ago)

WBGG 281800Z VRB01KT 8000 -RA FEW015CB SCT018 25/24 Q1010 NOSIG

Closest aviation forecast (TAF) to Lokok Airstrip

Closest forecast is Kuching International Airport, 33.3 nm (61.8 km) NNE.

2024/05/28 18:13 (retrieved 3 minutes ago)

TAF WBGG 281700Z 2818/2918 VRB02KT 9999 FEW020 TEMPO 2818/2822 6000 -RA FEW008 SCT018